createdAt,value
2022-09-27T00:00:32.007Z,64.27
2022-09-27T00:03:00.201Z,62.80
2022-09-27T00:05:28.188Z,62.27
2022-09-27T00:07:56.155Z,62.57
2022-09-27T00:10:24.229Z,62.47
2022-09-27T00:12:54.117Z,62.27
2022-09-27T00:15:22.070Z,62.20
2022-09-27T00:17:51.914Z,63.97
2022-09-27T00:20:21.063Z,62.10
2022-09-27T00:22:49.931Z,61.97
2022-09-27T00:25:18.498Z,61.97
2022-09-27T00:27:46.606Z,62.40
2022-09-27T00:30:16.401Z,62.20
2022-09-27T00:32:44.371Z,62.37
2022-09-27T00:35:12.793Z,62.60
2022-09-27T00:37:40.802Z,62.90
2022-09-27T00:40:09.622Z,62.37
2022-09-27T00:42:37.707Z,65.87
2022-09-27T00:45:14.110Z,62.17
2022-09-27T00:47:48.789Z,62.30
2022-09-27T00:50:24.249Z,62.50
2022-09-27T00:53:01.242Z,62.50
2022-09-27T00:55:32.133Z,62.80
2022-09-27T00:58:00.125Z,63.30
2022-09-27T01:00:28.257Z,62.37
2022-09-27T01:02:58.278Z,62.80
2022-09-27T01:05:28.761Z,63.03
2022-09-27T01:08:00.586Z,63.33
2022-09-27T01:10:31.510Z,64.00
2022-09-27T01:13:05.692Z,63.50
2022-09-27T01:15:39.239Z,63.53
2022-09-27T01:18:18.937Z,64.10
2022-09-27T01:21:19.320Z,63.67
2022-09-27T01:23:58.091Z,66.93
2022-09-27T01:26:36.923Z,64.77
2022-09-27T01:29:10.821Z,63.37
2022-09-27T01:31:43.261Z,65.77
2022-09-27T01:34:19.158Z,64.60
2022-09-27T01:36:54.093Z,63.60
2022-09-27T01:39:31.498Z,64.70
2022-09-27T01:42:22.843Z,63.40
2022-09-27T01:45:00.010Z,65.83
2022-09-27T01:47:39.415Z,66.00
2022-09-27T01:50:40.448Z,64.80
2022-09-27T01:53:11.819Z,64.87
2022-09-27T01:55:56.809Z,65.47
2022-09-27T01:58:51.684Z,64.67
2022-09-27T02:01:21.794Z,66.70
2022-09-27T02:03:53.389Z,66.67
2022-09-27T02:06:52.964Z,66.60
2022-09-27T02:09:29.870Z,68.07
2022-09-27T02:12:21.882Z,68.17
2022-09-27T02:14:54.853Z,67.70
2022-09-27T02:17:29.933Z,68.27
2022-09-27T02:20:04.997Z,71.87
2022-09-27T02:22:43.928Z,69.27
2022-09-27T02:25:15.846Z,68.87
2022-09-27T02:27:52.452Z,67.90
2022-09-27T02:30:21.744Z,71.80
2022-09-27T02:32:56.031Z,75.70
2022-09-27T02:35:29.644Z,71.83
2022-09-27T02:37:57.720Z,77.97
2022-09-27T02:40:27.168Z,78.13
2022-09-27T02:42:55.155Z,78.43
2022-09-27T02:45:24.300Z,83.27
2022-09-27T02:48:03.681Z,73.33
2022-09-27T02:50:55.256Z,78.00
2022-09-27T02:53:56.071Z,83.70
2022-09-27T02:56:50.648Z,75.40
2022-09-27T02:59:45.537Z,83.03
2022-09-27T03:02:35.575Z,78.97
2022-09-27T03:05:25.517Z,82.40
2022-09-27T03:07:54.824Z,83.47
2022-09-27T03:10:25.025Z,89.87
2022-09-27T03:12:53.463Z,87.63
2022-09-27T03:15:21.831Z,91.07
2022-09-27T03:18:01.932Z,91.57
2022-09-27T03:20:58.650Z,93.63
2022-09-27T03:23:28.416Z,95.67
2022-09-27T03:25:56.549Z,115.57
2022-09-27T03:28:25.147Z,99.33
2022-09-27T03:30:53.645Z,104.33
2022-09-27T03:33:41.981Z,93.80
2022-09-27T03:36:12.585Z,102.67
2022-09-27T03:38:42.135Z,111.40
2022-09-27T03:41:13.211Z,112.00
2022-09-27T03:43:41.371Z,112.00
2022-09-27T03:46:09.414Z,132.33
2022-09-27T03:48:37.478Z,115.83
2022-09-27T03:51:05.612Z,134.80
2022-09-27T03:53:33.586Z,112.83
2022-09-27T03:56:03.367Z,117.40
2022-09-27T03:58:32.228Z,165.23
2022-09-27T04:01:00.460Z,137.70
2022-09-27T04:03:29.023Z,181.53
2022-09-27T04:06:16.036Z,154.00
2022-09-27T04:08:45.993Z,117.23
2022-09-27T04:11:15.532Z,128.90
2022-09-27T04:13:47.437Z,147.30
2022-09-27T04:16:16.196Z,161.77
2022-09-27T04:19:09.525Z,114.93
2022-09-27T04:21:49.804Z,121.37
2022-09-27T04:24:19.345Z,137.20
2022-09-27T04:27:11.174Z,125.80
2022-09-27T04:29:43.192Z,141.13
2022-09-27T04:32:27.140Z,140.10
2022-09-27T04:35:33.445Z,148.23
2022-09-27T04:38:01.784Z,185.00
2022-09-27T04:40:30.248Z,154.20
2022-09-27T04:42:59.858Z,177.40
2022-09-27T04:45:27.823Z,142.87
2022-09-27T04:47:56.047Z,193.80
2022-09-27T04:50:24.187Z,166.00
2022-09-27T04:53:03.209Z,141.13
2022-09-27T04:55:31.246Z,179.03
2022-09-27T04:58:01.714Z,166.10
2022-09-27T05:00:30.388Z,151.33
2022-09-27T05:03:05.359Z,175.33
2022-09-27T05:05:43.311Z,145.07
2022-09-27T05:08:11.805Z,133.90
2022-09-27T05:11:02.855Z,143.67
2022-09-27T05:13:32.243Z,144.47
2022-09-27T05:16:04.092Z,196.90
2022-09-27T05:18:50.618Z,168.60
2022-09-27T05:21:37.144Z,126.37
2022-09-27T05:24:05.781Z,197.07
2022-09-27T05:26:33.782Z,190.37
2022-09-27T05:29:03.315Z,187.00
2022-09-27T05:31:31.336Z,122.43
2022-09-27T05:33:59.433Z,115.20
2022-09-27T05:36:37.627Z,140.17
2022-09-27T05:39:07.057Z,118.67
2022-09-27T05:41:35.576Z,119.73
2022-09-27T05:44:05.968Z,118.23
2022-09-27T05:46:34.970Z,128.37
2022-09-27T05:49:02.989Z,140.60
2022-09-27T05:51:30.959Z,120.53
2022-09-27T05:53:59.290Z,117.70
2022-09-27T05:56:29.752Z,114.67
2022-09-27T05:59:11.302Z,106.57
2022-09-27T06:01:59.441Z,104.07
2022-09-27T06:04:46.343Z,114.63
2022-09-27T06:07:33.133Z,100.30
2022-09-27T06:10:03.119Z,105.10
2022-09-27T06:12:31.994Z,98.93
2022-09-27T06:15:02.722Z,96.20
2022-09-27T06:17:37.658Z,93.40
2022-09-27T06:20:13.665Z,83.37
2022-09-27T06:22:42.139Z,88.13
2022-09-27T06:25:11.124Z,90.17
2022-09-27T06:27:50.905Z,76.13
2022-09-27T06:30:27.159Z,78.33
2022-09-27T06:32:59.344Z,74.07
2022-09-27T06:35:47.513Z,76.40
2022-09-27T06:38:17.893Z,77.60
2022-09-27T06:40:53.130Z,74.97
2022-09-27T06:43:33.055Z,68.80
2022-09-27T06:46:07.993Z,76.00
2022-09-27T06:48:57.671Z,71.87
2022-09-27T06:51:26.064Z,68.07
2022-09-27T06:53:54.772Z,68.30
2022-09-27T06:56:22.776Z,72.67
2022-09-27T06:59:12.845Z,72.70
2022-09-27T07:01:45.402Z,68.10
2022-09-27T07:04:34.971Z,69.27
2022-09-27T07:07:11.913Z,67.27
2022-09-27T07:09:42.631Z,68.07
2022-09-27T07:12:13.429Z,67.17
2022-09-27T07:14:42.467Z,66.87
2022-09-27T07:17:15.872Z,65.20
2022-09-27T07:19:46.313Z,66.43
2022-09-27T07:22:14.741Z,67.57
2022-09-27T07:24:45.625Z,68.57
2022-09-27T07:27:15.137Z,72.87
2022-09-27T07:29:43.204Z,77.00
2022-09-27T07:32:11.137Z,79.40
2022-09-27T07:34:41.291Z,79.97
2022-09-27T07:37:09.635Z,79.27
2022-09-27T07:39:40.899Z,77.27
2022-09-27T07:42:08.868Z,73.57
2022-09-27T07:44:42.226Z,74.87
2022-09-27T07:47:24.641Z,70.50
2022-09-27T07:50:23.081Z,68.07
2022-09-27T07:52:59.959Z,71.57
2022-09-27T07:55:54.548Z,68.87
2022-09-27T07:58:25.695Z,84.10
2022-09-27T08:00:57.138Z,66.97
2022-09-27T08:03:25.343Z,64.00
2022-09-27T08:05:55.709Z,65.33
2022-09-27T08:08:24.249Z,63.63
2022-09-27T08:10:53.921Z,63.90
2022-09-27T08:13:21.970Z,62.07
2022-09-27T08:15:53.292Z,61.27
2022-09-27T08:18:24.727Z,62.87
2022-09-27T08:21:02.241Z,61.37
2022-09-27T08:23:43.008Z,61.73
2022-09-27T08:26:34.462Z,61.87
2022-09-27T08:29:14.706Z,64.87
2022-09-27T08:31:51.787Z,61.27
2022-09-27T08:34:20.494Z,61.13
2022-09-27T08:36:49.892Z,61.83
2022-09-27T08:39:17.949Z,60.83
2022-09-27T08:41:53.903Z,61.80
2022-09-27T08:44:29.343Z,62.90
2022-09-27T08:47:08.179Z,61.07
2022-09-27T08:49:40.076Z,60.97
2022-09-27T08:52:15.313Z,60.80
2022-09-27T08:54:44.076Z,61.60
2022-09-27T08:57:13.298Z,60.87
2022-09-27T08:59:44.288Z,63.10
2022-09-27T09:02:19.047Z,61.20
2022-09-27T09:04:51.948Z,61.13
2022-09-27T09:07:39.722Z,61.70
2022-09-27T09:10:41.413Z,62.40
2022-09-27T09:13:14.594Z,61.10
2022-09-27T09:15:56.288Z,61.30
2022-09-27T09:18:35.977Z,61.00
2022-09-27T09:21:24.288Z,61.03
2022-09-27T09:24:14.641Z,62.00
2022-09-27T09:26:46.840Z,61.20
2022-09-27T09:29:25.650Z,60.77
2022-09-27T09:31:59.611Z,62.60
2022-09-27T09:34:30.563Z,62.83
2022-09-27T09:37:00.624Z,61.03
2022-09-27T09:39:35.104Z,61.77
2022-09-27T09:42:11.705Z,63.57
2022-09-27T09:44:47.408Z,62.90
2022-09-27T09:47:21.363Z,61.90
2022-09-27T09:49:53.632Z,62.63
2022-09-27T09:52:23.814Z,60.77
2022-09-27T09:54:57.425Z,61.57
2022-09-27T09:57:30.229Z,61.53
2022-09-27T10:00:00.806Z,60.97
2022-09-27T10:02:32.737Z,61.60
2022-09-27T10:05:31.500Z,61.17
2022-09-27T10:08:05.748Z,60.77
2022-09-27T10:10:35.385Z,61.27
2022-09-27T10:13:26.214Z,61.00
2022-09-27T10:16:03.398Z,61.17
2022-09-27T10:18:33.501Z,61.50
2022-09-27T10:21:04.131Z,61.43
2022-09-27T10:23:32.139Z,61.37
2022-09-27T10:26:21.586Z,62.10
2022-09-27T10:28:52.177Z,63.27
2022-09-27T10:31:36.472Z,61.70
2022-09-27T10:34:20.243Z,61.10
2022-09-27T10:37:05.229Z,61.27
2022-09-27T10:39:35.512Z,62.23
2022-09-27T10:42:21.281Z,61.20
2022-09-27T10:44:50.257Z,61.70
2022-09-27T10:47:27.487Z,65.10
2022-09-27T10:50:38.605Z,62.93
2022-09-27T10:53:18.874Z,60.40
2022-09-27T10:55:53.915Z,61.60
2022-09-27T10:58:28.792Z,61.40
2022-09-27T11:00:58.506Z,61.00
2022-09-27T11:03:29.076Z,62.17
2022-09-27T11:05:59.423Z,62.87
2022-09-27T11:08:32.525Z,62.30
2022-09-27T11:11:13.768Z,62.47
2022-09-27T11:13:59.028Z,61.50
2022-09-27T11:16:46.235Z,61.60
2022-09-27T11:19:33.083Z,61.97
2022-09-27T11:22:04.063Z,61.57
2022-09-27T11:24:43.304Z,61.90
2022-09-27T11:27:22.302Z,61.30
2022-09-27T11:30:03.722Z,62.07
2022-09-27T11:33:18.879Z,64.10
2022-09-27T11:35:57.169Z,61.40
2022-09-27T11:38:51.210Z,61.33
2022-09-27T11:41:28.873Z,61.77
2022-09-27T11:44:09.167Z,61.17
2022-09-27T11:46:42.099Z,62.93
2022-09-27T11:49:32.405Z,61.67
2022-09-27T11:52:25.448Z,61.80
2022-09-27T11:55:10.723Z,61.47
2022-09-27T11:57:43.684Z,62.40
2022-09-27T12:00:17.822Z,61.77
2022-09-27T12:03:10.574Z,62.10
2022-09-27T12:05:57.826Z,62.27
2022-09-27T12:08:34.748Z,62.10
2022-09-27T12:11:06.525Z,61.83
2022-09-27T12:13:39.063Z,62.07
2022-09-27T12:16:07.740Z,62.23
2022-09-27T12:18:40.467Z,62.17
2022-09-27T12:21:23.108Z,62.27
2022-09-27T12:23:53.176Z,62.43
2022-09-27T12:26:37.700Z,62.47
2022-09-27T12:29:13.970Z,64.20
2022-09-27T12:31:45.626Z,62.30
2022-09-27T12:34:20.129Z,63.53
2022-09-27T12:36:52.860Z,61.77
2022-09-27T12:39:25.261Z,62.37
2022-09-27T12:42:03.135Z,61.90
2022-09-27T12:44:44.941Z,65.27
2022-09-27T12:47:35.644Z,61.43
2022-09-27T12:50:11.355Z,61.60
2022-09-27T12:52:43.025Z,61.20
2022-09-27T12:55:35.386Z,61.57
2022-09-27T12:58:37.672Z,61.10
2022-09-27T13:01:13.738Z,60.67
2022-09-27T13:04:03.496Z,60.87
2022-09-27T13:06:47.326Z,62.20
2022-09-27T13:09:46.304Z,61.40
2022-09-27T13:12:16.258Z,60.47
2022-09-27T13:14:58.656Z,60.90
2022-09-27T13:17:53.250Z,60.87
2022-09-27T13:20:48.247Z,61.40
2022-09-27T13:24:02.113Z,61.07
2022-09-27T13:27:42.871Z,60.63
2022-09-27T13:30:50.205Z,61.10
2022-09-27T13:33:43.231Z,62.10
2022-09-27T13:36:37.749Z,61.57
2022-09-27T13:39:23.065Z,61.30
2022-09-27T13:42:30.118Z,63.60
2022-09-27T13:45:16.015Z,62.20
2022-09-27T13:47:47.437Z,61.70
2022-09-27T13:50:26.643Z,61.10
2022-09-27T13:53:08.376Z,61.63
2022-09-27T13:55:46.797Z,61.40
2022-09-27T13:58:35.246Z,61.77
2022-09-27T14:01:13.278Z,63.77
2022-09-27T14:03:43.945Z,63.40
2022-09-27T14:06:15.306Z,62.17
2022-09-27T14:08:47.354Z,61.80
2022-09-27T14:11:19.173Z,62.10
2022-09-27T14:13:48.554Z,61.77
2022-09-27T14:16:20.850Z,62.07
2022-09-27T14:18:53.892Z,62.53
2022-09-27T14:21:32.288Z,62.90
2022-09-27T14:24:29.621Z,62.63
2022-09-27T14:27:10.548Z,62.30
2022-09-27T14:29:42.206Z,62.17
2022-09-27T14:32:13.174Z,63.03
2022-09-27T14:35:31.715Z,62.80
2022-09-27T14:38:07.480Z,62.10
2022-09-27T14:40:45.774Z,62.37
2022-09-27T14:43:18.301Z,62.00
2022-09-27T14:45:48.801Z,61.97
2022-09-27T14:48:22.291Z,62.50
2022-09-27T14:51:04.950Z,62.77
2022-09-27T14:53:35.588Z,62.47
2022-09-27T14:56:08.062Z,62.90
2022-09-27T14:58:47.276Z,62.50
2022-09-27T15:01:16.870Z,63.03
2022-09-27T15:03:46.471Z,63.60
2022-09-27T15:06:17.342Z,61.97
2022-09-27T15:08:49.287Z,61.60
2022-09-27T15:11:17.981Z,62.10
2022-09-27T15:13:50.637Z,61.97
2022-09-27T15:16:20.210Z,61.67
2022-09-27T15:18:49.533Z,62.20
2022-09-27T15:21:29.712Z,61.63
2022-09-27T15:23:58.837Z,62.77
2022-09-27T15:26:29.961Z,61.37
2022-09-27T15:28:59.343Z,69.20
2022-09-27T15:31:30.477Z,62.30
2022-09-27T15:33:59.303Z,61.90
2022-09-27T15:36:53.071Z,61.60
2022-09-27T15:39:22.390Z,61.60
2022-09-27T15:42:08.890Z,61.77
2022-09-27T15:44:45.261Z,62.37
2022-09-27T15:47:48.746Z,61.60
2022-09-27T15:50:36.154Z,62.13
2022-09-27T15:53:06.674Z,61.47
2022-09-27T15:55:37.731Z,62.50
2022-09-27T15:58:08.299Z,61.17
2022-09-27T16:00:37.755Z,61.43
2022-09-27T16:03:05.736Z,61.17
2022-09-27T16:05:33.786Z,63.70
2022-09-27T16:08:02.262Z,60.67
2022-09-27T16:10:33.325Z,61.57
2022-09-27T16:13:01.268Z,61.00
2022-09-27T16:15:29.246Z,61.37
2022-09-27T16:17:58.791Z,62.67
2022-09-27T16:20:28.166Z,62.27
2022-09-27T16:22:56.671Z,62.70
2022-09-27T16:25:24.849Z,62.53
2022-09-27T16:27:53.696Z,61.13
2022-09-27T16:30:21.669Z,61.40
2022-09-27T16:32:50.133Z,64.07
2022-09-27T16:35:20.984Z,63.20
2022-09-27T16:37:48.968Z,63.53
2022-09-27T16:40:17.998Z,66.13
2022-09-27T16:42:46.575Z,66.97
2022-09-27T16:45:19.150Z,67.27
2022-09-27T16:47:48.770Z,68.87
2022-09-27T16:50:34.516Z,70.90
2022-09-27T16:53:05.251Z,69.00
2022-09-27T16:55:33.241Z,67.03
2022-09-27T16:58:03.739Z,69.70
2022-09-27T17:00:33.279Z,64.80
2022-09-27T17:03:01.442Z,68.70
2022-09-27T17:05:29.561Z,69.37
2022-09-27T17:07:57.903Z,69.53
2022-09-27T17:10:27.444Z,72.40
2022-09-27T17:12:57.186Z,69.03
2022-09-27T17:15:25.192Z,72.60
2022-09-27T17:17:53.271Z,75.47
2022-09-27T17:20:21.211Z,73.73
2022-09-27T17:22:49.257Z,77.57
2022-09-27T17:25:17.412Z,74.17
2022-09-27T17:27:46.759Z,76.00
2022-09-27T17:30:14.824Z,76.63
2022-09-27T17:32:42.774Z,80.17
2022-09-27T17:35:10.860Z,76.23
2022-09-27T17:37:38.871Z,77.80
2022-09-27T17:40:07.644Z,76.63
2022-09-27T17:42:37.267Z,78.37
2022-09-27T17:45:07.693Z,70.83
2022-09-27T17:47:53.354Z,75.73
2022-09-27T17:50:28.743Z,70.90
2022-09-27T17:52:58.855Z,76.60
2022-09-27T17:55:27.603Z,72.17
2022-09-27T17:57:55.626Z,78.20
2022-09-27T18:00:25.011Z,77.60
2022-09-27T18:02:53.068Z,78.57
2022-09-27T18:05:21.748Z,76.97
2022-09-27T18:07:50.204Z,80.17
2022-09-27T18:10:18.712Z,82.30
2022-09-27T18:12:46.692Z,81.97
2022-09-27T18:15:20.301Z,91.50
2022-09-27T18:17:57.787Z,82.50
2022-09-27T18:20:26.221Z,74.67
2022-09-27T18:22:54.591Z,80.90
2022-09-27T18:25:25.142Z,81.07
2022-09-27T18:27:55.889Z,79.13
2022-09-27T18:30:24.093Z,78.97
2022-09-27T18:32:53.795Z,79.93
2022-09-27T18:35:23.855Z,76.70
2022-09-27T18:37:51.900Z,83.43
2022-09-27T18:40:38.019Z,81.90
2022-09-27T18:43:08.326Z,76.57
2022-09-27T18:45:37.133Z,81.73
2022-09-27T18:48:06.872Z,85.17
2022-09-27T18:50:38.569Z,92.13
2022-09-27T18:53:08.328Z,97.10
2022-09-27T18:55:38.380Z,104.83
2022-09-27T18:58:06.410Z,110.17
2022-09-27T19:00:34.509Z,112.37
2022-09-27T19:03:02.468Z,101.53
2022-09-27T19:05:31.871Z,132.63
2022-09-27T19:08:00.024Z,128.67
2022-09-27T19:10:28.077Z,125.83
2022-09-27T19:12:57.187Z,161.67
2022-09-27T19:15:25.596Z,158.10
2022-09-27T19:17:53.623Z,141.93
2022-09-27T19:20:21.647Z,163.87
2022-09-27T19:22:51.080Z,117.47
2022-09-27T19:25:19.028Z,110.70
2022-09-27T19:27:47.055Z,122.87
2022-09-27T19:30:15.368Z,153.63
2022-09-27T19:32:43.414Z,130.93
2022-09-27T19:35:12.429Z,138.33
2022-09-27T19:37:40.441Z,148.43
2022-09-27T19:40:10.398Z,144.23
2022-09-27T19:42:38.525Z,121.10
2022-09-27T19:45:11.443Z,138.20
2022-09-27T19:47:39.916Z,146.70
2022-09-27T19:50:09.067Z,132.47
2022-09-27T19:52:37.292Z,139.90
2022-09-27T19:55:06.708Z,153.33
2022-09-27T19:57:36.102Z,163.97
2022-09-27T20:00:04.998Z,144.23
2022-09-27T20:02:33.547Z,170.30
2022-09-27T20:05:01.873Z,160.70
2022-09-27T20:07:30.678Z,182.20
2022-09-27T20:09:58.636Z,227.63
2022-09-27T20:12:27.724Z,128.30
2022-09-27T20:14:57.016Z,158.00
2022-09-27T20:17:24.982Z,128.20
2022-09-27T20:19:52.906Z,135.10
2022-09-27T20:22:20.862Z,136.83
2022-09-27T20:24:48.799Z,132.87
2022-09-27T20:27:16.808Z,172.73
2022-09-27T20:29:44.858Z,135.67
2022-09-27T20:32:27.242Z,191.37
2022-09-27T20:34:55.984Z,172.93
2022-09-27T20:37:23.953Z,140.17
2022-09-27T20:39:53.556Z,154.50
2022-09-27T20:42:21.563Z,164.60
2022-09-27T20:44:53.925Z,207.63
2022-09-27T20:47:23.825Z,229.13
2022-09-27T20:49:51.799Z,237.80
2022-09-27T20:52:19.739Z,196.10
2022-09-27T20:54:47.781Z,208.10
2022-09-27T20:57:15.963Z,265.93
2022-09-27T20:59:43.947Z,259.23
2022-09-27T21:02:12.021Z,250.00
2022-09-27T21:04:41.419Z,312.77
2022-09-27T21:07:09.381Z,272.27
2022-09-27T21:09:38.675Z,237.33
2022-09-27T21:12:06.679Z,273.77
2022-09-27T21:14:34.696Z,332.03
2022-09-27T21:17:02.642Z,283.07
2022-09-27T21:19:30.717Z,266.17
2022-09-27T21:22:00.117Z,244.40
2022-09-27T21:24:28.162Z,280.33
2022-09-27T21:26:57.688Z,217.43
2022-09-27T21:29:25.668Z,140.67
2022-09-27T21:31:53.770Z,121.87
2022-09-27T21:34:21.841Z,120.93
2022-09-27T21:36:50.145Z,110.53
2022-09-27T21:39:19.614Z,133.03
2022-09-27T21:41:47.572Z,260.47
2022-09-27T21:44:15.772Z,163.27
2022-09-27T21:46:43.894Z,248.00
2022-09-27T21:49:11.971Z,217.97
2022-09-27T21:51:41.187Z,278.10
2022-09-27T21:54:11.149Z,281.13
2022-09-27T21:56:41.127Z,300.00
2022-09-27T21:59:12.043Z,440.17
2022-09-27T22:01:40.123Z,333.67
2022-09-27T22:04:08.252Z,424.30
2022-09-27T22:06:37.775Z,381.63
2022-09-27T22:09:07.995Z,424.53
2022-09-27T22:11:38.588Z,404.17
2022-09-27T22:14:07.957Z,407.93
2022-09-27T22:16:36.335Z,414.80
2022-09-27T22:19:04.909Z,446.40
2022-09-27T22:21:34.977Z,504.47
2022-09-27T22:24:07.749Z,462.97
2022-09-27T22:26:37.782Z,481.77
2022-09-27T22:29:06.271Z,499.27
2022-09-27T22:31:36.258Z,464.17
2022-09-27T22:34:06.006Z,458.63
2022-09-27T22:36:35.078Z,560.40
2022-09-27T22:39:03.387Z,593.53
2022-09-27T22:41:32.185Z,567.43
2022-09-27T22:44:01.203Z,569.10
2022-09-27T22:46:29.356Z,520.23
2022-09-27T22:48:58.740Z,469.47
2022-09-27T22:51:27.100Z,515.13
2022-09-27T22:53:55.068Z,456.63
2022-09-27T22:56:23.039Z,475.03
2022-09-27T22:58:51.445Z,550.70
2022-09-27T23:01:20.942Z,508.90
2022-09-27T23:03:50.107Z,481.27
2022-09-27T23:06:20.840Z,410.33
2022-09-27T23:08:49.578Z,436.27
2022-09-27T23:11:19.768Z,470.03
2022-09-27T23:13:49.093Z,515.00
2022-09-27T23:16:20.089Z,631.10
2022-09-27T23:18:48.685Z,555.47
2022-09-27T23:21:17.244Z,547.30
2022-09-27T23:23:47.377Z,644.53
2022-09-27T23:26:17.331Z,537.70
2022-09-27T23:28:45.650Z,498.97
2022-09-27T23:31:15.068Z,560.83
2022-09-27T23:33:44.954Z,607.17
2022-09-27T23:36:38.080Z,568.00
2022-09-27T23:39:07.503Z,494.83
2022-09-27T23:41:35.444Z,515.80
2022-09-27T23:44:03.358Z,456.07
2022-09-27T23:46:31.724Z,542.40
2022-09-27T23:48:59.785Z,483.90
2022-09-27T23:51:27.716Z,482.93
2022-09-27T23:53:57.699Z,436.43
2022-09-27T23:56:27.270Z,537.70
2022-09-27T23:58:55.288Z,485.60
